Time;durP1;ratioP1;P1;durP2;ratioP2;P2;SDS_P1;SDS_P2;PMS_P1;PMS_P2;Temp;Humidity;BMP_temperature;BMP_pressure;BME280_temperature;BME280_humidity;BME280_pressure;Samples;Min_cycle;Max_cycle;Signal;HPM_P1;HPM_P2
2022/11/10 00:01:53;;;;;;;2.90;1.42;;;;;;;18.81;56.41;101301.66;5053245;28;20075;-42
2022/11/10 00:04:18;;;;;;;2.97;1.58;;;;;;;18.81;56.29;101312.19;5048155;28;20094;-41
2022/11/10 00:06:46;;;;;;;4.60;1.83;;;;;;;18.81;56.50;101309.56;5046969;28;20516;-41
2022/11/10 00:09:11;;;;;;;3.08;1.30;;;;;;;18.82;56.17;101315.69;5047649;28;20865;-43
2022/11/10 00:11:37;;;;;;;3.42;2.00;;;;;;;18.80;56.27;101322.81;5048911;28;20090;-42
2022/11/10 00:17:01;;;;;;;2.75;1.35;;;;;;;18.80;56.20;101326.31;5043522;28;20052;-42
2022/11/10 00:19:27;;;;;;;3.70;1.40;;;;;;;18.80;56.14;101322.81;5050171;28;20367;-42
2022/11/10 00:21:53;;;;;;;4.40;1.30;;;;;;;18.79;56.47;101327.22;5047978;28;20566;-41
2022/11/10 00:24:18;;;;;;;2.67;1.20;;;;;;;18.80;56.16;101339.47;5048333;28;20038;-41
2022/11/10 00:26:43;;;;;;;4.13;1.35;;;;;;;18.78;56.14;101343.91;5051102;28;20508;-41
2022/11/10 00:29:09;;;;;;;5.28;1.50;;;;;;;18.79;56.10;101336.88;5055623;28;20151;-42
2022/11/10 00:31:36;;;;;;;2.50;1.50;;;;;;;18.81;56.09;101342.94;5057396;28;20129;-42
2022/11/10 00:34:02;;;;;;;4.65;1.40;;;;;;;18.77;56.25;101336.97;5050303;28;20044;-42
2022/11/10 00:36:28;;;;;;;2.13;1.17;;;;;;;18.77;56.08;101347.50;5057894;28;20032;-43
2022/11/10 00:38:53;;;;;;;3.15;1.33;;;;;;;18.78;56.06;101346.56;5052256;28;20045;-41
2022/11/10 00:41:19;;;;;;;4.45;1.45;;;;;;;18.78;56.11;101349.19;5047629;28;20039;-41
2022/11/10 00:43:45;;;;;;;3.95;1.15;;;;;;;18.76;56.33;101352.81;5051307;28;20066;-41
2022/11/10 00:46:10;;;;;;;1.55;0.85;;;;;;;18.77;56.28;101346.63;5052880;28;20048;-42
2022/11/10 00:48:36;;;;;;;3.35;1.42;;;;;;;18.76;56.17;101345.78;5050920;28;20029;-41
2022/11/10 00:51:01;;;;;;;3.88;1.10;;;;;;;18.74;56.20;101345.00;5052643;28;20025;-42
2022/11/10 00:53:26;;;;;;;3.53;1.30;;;;;;;18.75;56.27;101359.84;5045552;28;20410;-42
2022/11/10 00:55:52;;;;;;;3.42;1.67;;;;;;;18.74;56.28;101357.31;5053869;28;20110;-41
2022/11/10 00:58:17;;;;;;;2.25;1.38;;;;;;;18.75;56.22;101354.59;5045909;28;20611;-42
2022/11/10 01:00:42;;;;;;;4.78;1.20;;;;;;;18.75;56.14;101362.47;5053379;28;20410;-43
2022/11/10 01:03:15;;;;;;;2.80;1.48;;;;;;;18.76;56.13;101356.31;5047050;28;20033;-42
2022/11/10 01:05:42;;;;;;;2.55;1.27;;;;;;;18.74;56.23;101360.78;5048211;28;20033;-43
2022/11/10 01:08:08;;;;;;;3.22;1.50;;;;;;;18.74;56.03;101362.56;5046507;28;20032;-42
2022/11/10 01:10:33;;;;;;;2.30;1.27;;;;;;;18.75;56.16;101370.38;5043596;28;20032;-41
2022/11/10 01:12:59;;;;;;;3.70;1.00;;;;;;;18.75;56.21;101378.28;5054918;28;20037;-42
2022/11/10 01:15:25;;;;;;;2.53;1.20;;;;;;;18.74;56.21;101378.38;5044375;28;20025;-42
2022/11/10 01:17:52;;;;;;;1.35;0.90;;;;;;;18.74;56.20;101383.63;5053057;28;20669;-42
2022/11/10 01:20:17;;;;;;;4.40;1.50;;;;;;;18.74;56.11;101387.13;5068678;28;20043;-43
2022/11/10 01:22:43;;;;;;;2.75;1.40;;;;;;;18.74;56.13;101388.88;5054668;28;20044;-42
2022/11/10 01:25:08;;;;;;;2.30;1.10;;;;;;;18.73;56.28;101395.94;5054081;28;20135;-43
2022/11/10 01:27:34;;;;;;;3.05;1.20;;;;;;;18.73;55.96;101389.81;5049966;28;20470;-43
2022/11/10 01:29:59;;;;;;;3.10;1.50;;;;;;;18.72;56.16;101391.56;5045592;28;20036;-42
2022/11/10 01:32:25;;;;;;;3.15;1.23;;;;;;;18.73;56.11;101395.94;5049030;28;20068;-45
2022/11/10 01:34:50;;;;;;;1.88;1.10;;;;;;;18.73;56.20;101395.06;5052516;28;20045;-42
2022/11/10 01:37:15;;;;;;;2.88;1.00;;;;;;;18.70;56.14;101398.69;5041423;28;20045;-42
2022/11/10 01:39:41;;;;;;;3.28;1.25;;;;;;;18.72;56.13;101393.38;5055428;28;20040;-41
2022/11/10 01:42:06;;;;;;;2.58;1.27;;;;;;;18.73;55.83;101397.69;5051328;28;20043;-43
2022/11/10 01:44:34;;;;;;;3.05;1.20;;;;;;;18.72;55.91;101401.28;5044082;28;20063;-44
2022/11/10 01:46:59;;;;;;;1.90;0.90;;;;;;;18.72;55.89;101402.09;5050226;28;20504;-42
2022/11/10 01:49:27;;;;;;;3.85;1.52;;;;;;;18.72;56.03;101398.63;5047529;28;20047;-43
2022/11/10 01:51:55;;;;;;;3.53;1.30;;;;;;;18.70;56.04;101401.31;5046879;28;20128;-43
2022/11/10 01:54:35;;;;;;;4.03;1.33;;;;;;;18.70;55.99;101401.31;5045447;28;20036;-41
2022/11/10 01:57:10;;;;;;;2.25;1.00;;;;;;;18.71;56.00;101405.69;5048434;28;20041;-42
2022/11/10 01:59:39;;;;;;;;;;;;;;;18.67;56.02;101406.72;5045980;28;20045;-42
2022/11/10 02:02:16;;;;;;;1.83;1.17;;;;;;;18.69;55.97;101405.72;5045837;28;19977;-42
2022/11/10 02:04:42;;;;;;;3.58;1.30;;;;;;;18.68;56.16;101397.91;5050874;28;20040;-41
2022/11/10 02:07:08;;;;;;;2.80;1.25;;;;;;;18.70;56.03;101409.22;5048171;28;20580;-48
2022/11/10 02:09:34;;;;;;;2.90;0.75;;;;;;;18.69;56.00;101407.50;5044285;28;20047;-46
2022/11/10 02:11:59;;;;;;;3.53;1.30;;;;;;;18.69;55.93;101410.13;5048963;28;20422;-46
2022/11/10 02:14:25;;;;;;;2.38;0.93;;;;;;;18.68;55.91;101416.34;5047188;28;20049;-46
2022/11/10 02:16:51;;;;;;;3.75;1.10;;;;;;;18.68;56.13;101418.97;5052118;28;20040;-47
2022/11/10 02:19:22;;;;;;;2.67;1.13;;;;;;;18.68;56.14;101418.97;5048273;28;20037;-51
2022/11/10 02:21:47;;;;;;;2.35;1.02;;;;;;;18.67;55.98;101418.13;5043660;28;20037;-47
2022/11/10 02:24:13;;;;;;;2.47;1.02;;;;;;;18.67;56.01;101418.13;5045701;28;20037;-47
2022/11/10 02:26:45;;;;;;;1.60;0.90;;;;;;;18.65;56.21;101419.97;5045363;28;20029;-46
2022/11/10 02:29:11;;;;;;;2.67;1.25;;;;;;;18.64;56.09;101430.53;5050727;28;20028;-46
2022/11/10 02:31:37;;;;;;;2.92;1.10;;;;;;;18.67;56.05;101433.03;5044598;28;20041;-46
2022/11/10 02:34:02;;;;;;;3.97;1.50;;;;;;;18.68;55.93;101430.34;5046320;28;20105;-47
2022/11/10 02:36:28;;;;;;;3.17;1.20;;;;;;;18.68;56.09;101432.13;5048245;28;20025;-47
2022/11/10 02:38:53;;;;;;;3.35;1.48;;;;;;;18.67;55.99;101431.28;5047968;28;20457;-46
2022/11/10 02:41:19;;;;;;;4.78;1.27;;;;;;;18.63;55.91;101434.94;5046430;28;20177;-47
2022/11/10 02:43:44;;;;;;;2.33;1.10;;;;;;;18.64;56.09;101449.81;5049904;28;20152;-47
2022/11/10 02:46:10;;;;;;;1.92;0.95;;;;;;;18.66;55.83;101447.13;5048830;28;20040;-45
2022/11/10 02:48:35;;;;;;;3.88;1.20;;;;;;;18.66;56.01;101453.25;5050918;28;20478;-46
2022/11/10 02:51:00;;;;;;;1.80;0.80;;;;;;;18.63;56.16;101456.00;5049062;28;20053;-47
2022/11/10 02:53:26;;;;;;;2.63;0.98;;;;;;;18.64;55.98;101459.50;5045741;28;20040;-46
2022/11/10 02:55:51;;;;;;;3.20;1.05;;;;;;;18.63;56.05;101463.91;5052583;28;20039;-47
2022/11/10 02:58:17;;;;;;;1.92;1.00;;;;;;;18.66;55.97;101452.38;5046475;28;20079;-46
2022/11/10 03:00:42;;;;;;;2.28;1.05;;;;;;;18.66;56.16;101452.38;5049564;28;20599;-47
2022/11/10 03:03:07;;;;;;;3.05;1.50;;;;;;;18.64;55.73;101451.59;5053158;28;20033;-47
2022/11/10 03:05:33;;;;;;;1.77;1.02;;;;;;;18.63;55.88;101456.00;5072946;28;20040;-48
2022/11/10 03:08:00;;;;;;;2.80;1.17;;;;;;;18.64;55.95;101460.34;5054837;28;20045;-47
2022/11/10 03:10:27;;;;;;;1.80;0.88;;;;;;;18.64;55.78;101467.38;5051724;28;20048;-48
2022/11/10 03:12:55;;;;;;;5.43;1.70;;;;;;;18.63;55.76;101466.53;5055309;28;20040;-48
2022/11/10 03:15:21;;;;;;;2.10;1.08;;;;;;;18.61;56.24;101464.88;5043881;28;20029;-46
2022/11/10 03:17:46;;;;;;;1.83;0.98;;;;;;;18.61;55.81;101471.00;5050518;28;20464;-49
2022/11/10 03:20:12;;;;;;;1.85;0.90;;;;;;;18.61;56.13;101471.00;5051839;28;20343;-47
2022/11/10 03:22:37;;;;;;;2.17;1.10;;;;;;;18.62;55.75;101483.25;5050058;28;20103;-49
2022/11/10 03:25:03;;;;;;;3.60;1.10;;;;;;;18.63;55.83;101489.34;5056934;28;20405;-46
2022/11/10 03:27:28;;;;;;;1.90;1.00;;;;;;;18.61;56.00;101497.31;5051058;28;20032;-48
2022/11/10 03:29:54;;;;;;;1.83;0.90;;;;;;;18.60;55.99;101495.59;5048942;28;20152;-50
2022/11/10 03:32:19;;;;;;;2.08;1.08;;;;;;;18.59;55.79;101491.28;5051472;28;20061;-46
2022/11/10 03:34:44;;;;;;;3.33;1.00;;;;;;;18.58;55.92;101492.19;5053122;28;20074;-46
2022/11/10 03:37:10;;;;;;;2.47;0.98;;;;;;;18.60;55.84;101498.25;5047146;28;20131;-47
2022/11/10 03:39:35;;;;;;;1.60;0.88;;;;;;;18.60;55.90;101506.13;5044989;28;20550;-47
2022/11/10 03:42:00;;;;;;;3.10;1.17;;;;;;;18.61;55.84;101501.72;5054510;28;20642;-47
2022/11/10 03:44:26;;;;;;;1.55;0.75;;;;;;;18.58;55.82;101502.72;5052427;28;20052;-48
2022/11/10 03:46:51;;;;;;;2.22;1.30;;;;;;;18.58;55.93;101502.72;5047721;28;20044;-46
2022/11/10 03:49:16;;;;;;;3.40;1.10;;;;;;;18.58;55.84;101499.22;5052478;28;20047;-47
2022/11/10 03:51:42;;;;;;;2.50;0.90;;;;;;;18.58;55.77;101494.81;5051069;28;20028;-46
2022/11/10 03:54:07;;;;;;;2.15;0.93;;;;;;;18.59;55.94;101496.53;5052392;28;20076;-46
2022/11/10 03:56:32;;;;;;;4.25;0.90;;;;;;;18.57;56.00;101511.53;5052736;28;20040;-46
2022/11/10 03:58:58;;;;;;;1.77;0.88;;;;;;;18.57;56.04;101508.88;5046804;28;20102;-46
2022/11/10 04:01:23;;;;;;;2.65;0.90;;;;;;;18.58;55.52;101518.50;5051707;28;20036;-48
2022/11/10 04:03:49;;;;;;;2.70;1.15;;;;;;;18.59;55.73;101519.38;5044654;28;20731;-48
2022/11/10 04:08:59;;;;;;;4.22;1.23;;;;;;;18.58;55.98;101517.66;5057211;28;20082;-46
2022/11/10 04:16:54;;;;;;;2.70;0.88;;;;;;;18.56;55.95;101533.50;5044617;28;20059;-46
2022/11/10 04:19:20;;;;;;;2.80;1.00;;;;;;;18.56;55.92;101541.41;5046903;28;20033;-46
2022/11/10 04:21:45;;;;;;;2.00;1.00;;;;;;;18.57;56.14;101547.53;5050503;28;20044;-46
2022/11/10 04:24:11;;;;;;;2.58;0.73;;;;;;;18.58;55.70;101549.22;5049233;28;20029;-46
2022/11/10 04:26:37;;;;;;;1.75;0.80;;;;;;;18.56;56.04;101551.06;5053882;28;20033;-46
2022/11/10 04:29:05;;;;;;;2.00;0.73;;;;;;;18.56;55.81;101556.34;5053119;28;20041;-47
2022/11/10 04:31:32;;;;;;;1.67;1.00;;;;;;;18.55;55.91;101554.63;5053392;28;20094;-46
2022/11/10 04:33:58;;;;;;;3.92;1.10;;;;;;;18.55;55.75;101560.75;5045147;28;20041;-47
2022/11/10 04:36:27;;;;;;;3.50;1.08;;;;;;;18.55;55.66;101568.63;5045082;28;20044;-49
2022/11/10 04:38:54;;;;;;;1.70;0.77;;;;;;;18.56;55.61;101567.72;5052015;28;20041;-47
2022/11/10 04:41:20;;;;;;;1.58;0.73;;;;;;;18.56;55.87;101570.34;5050536;28;20036;-47
2022/11/10 04:43:45;;;;;;;3.00;1.15;;;;;;;18.55;55.62;101578.28;5054359;28;20110;-41
2022/11/10 04:46:31;;;;;;;2.13;1.10;;;;;;;18.55;55.66;101581.78;5047832;28;20051;-42
2022/11/10 04:48:57;;;;;;;3.13;0.60;;;;;;;18.56;55.67;101588.78;5049618;28;20051;-43
2022/11/10 04:51:29;;;;;;;2.00;0.90;;;;;;;18.55;55.84;101592.31;5053666;28;20028;-42
2022/11/10 04:53:55;;;;;;;2.50;0.90;;;;;;;18.55;55.61;101597.56;5051210;28;20044;-44
2022/11/10 04:56:23;;;;;;;3.65;1.10;;;;;;;18.54;55.64;101601.13;5051974;28;20137;-49
2022/11/10 04:58:49;;;;;;;3.70;1.00;;;;;;;18.55;55.74;101604.59;5055646;28;20040;-49
2022/11/10 05:01:18;;;;;;;2.83;0.88;;;;;;;18.55;55.58;101612.50;5048573;28;20080;-51
2022/11/10 05:03:44;;;;;;;2.72;0.90;;;;;;;18.53;55.63;101603.81;5047637;28;20068;-49
2022/11/10 05:06:10;;;;;;;2.63;1.33;;;;;;;18.54;55.64;101610.81;5053066;28;20024;-50
2022/11/10 05:08:37;;;;;;;1.40;0.90;;;;;;;18.53;55.68;101612.59;5047115;28;20044;-49
2022/11/10 05:11:02;;;;;;;2.08;0.90;;;;;;;18.54;55.83;101623.97;5052649;28;20047;-46
2022/11/10 05:13:28;;;;;;;3.00;0.80;;;;;;;18.52;55.89;101623.16;5050148;28;20041;-48
2022/11/10 05:15:53;;;;;;;2.85;1.10;;;;;;;18.53;55.61;101628.38;5051835;28;20943;-47
2022/11/10 05:18:19;;;;;;;3.08;1.05;;;;;;;18.54;55.68;101626.59;5051259;28;20031;-47
2022/11/10 05:20:44;;;;;;;2.13;0.65;;;;;;;18.53;55.58;101632.78;5050255;28;20044;-47
2022/11/10 05:25:54;;;;;;;1.93;0.70;;;;;;;18.53;55.72;101645.94;5051008;28;20156;-47
2022/11/10 05:28:19;;;;;;;3.13;1.17;;;;;;;18.52;55.84;101646.84;5047506;28;20041;-47
2022/11/10 05:30:45;;;;;;;2.42;1.00;;;;;;;18.51;55.68;101647.78;5050792;28;20044;-46
2022/11/10 05:33:10;;;;;;;2.58;0.90;;;;;;;18.50;55.59;101638.16;5041694;28;20032;-46
2022/11/10 05:35:36;;;;;;;2.55;0.85;;;;;;;18.51;56.04;101642.50;5044169;28;20051;-46
2022/11/10 05:38:01;;;;;;;2.22;0.93;;;;;;;18.51;55.66;101651.22;5047333;28;20156;-46
2022/11/10 05:40:28;;;;;;;3.13;0.90;;;;;;;18.52;55.61;101660.00;5048159;28;20075;-50
2022/11/10 05:42:53;;;;;;;2.67;0.70;;;;;;;18.51;55.68;101667.03;5054713;28;20044;-47
2022/11/10 05:45:21;;;;;;;2.65;0.70;;;;;;;18.51;55.57;101672.28;5047479;28;20077;-47
2022/11/10 05:47:46;;;;;;;2.40;1.13;;;;;;;18.52;55.44;101676.63;5044343;28;20064;-46
2022/11/10 05:50:12;;;;;;;2.03;0.90;;;;;;;18.52;55.35;101678.41;5050327;28;20040;-47
2022/11/10 05:52:46;;;;;;;3.75;1.17;;;;;;;18.52;55.35;101673.16;5050431;28;20498;-48
2022/11/10 05:55:12;;;;;;;1.67;0.80;;;;;;;18.53;55.25;101673.09;5051664;28;20033;-46
2022/11/10 05:57:41;;;;;;;3.33;1.27;;;;;;;18.56;55.44;101677.38;5050973;28;20109;-46
2022/11/10 06:00:08;;;;;;;1.38;0.90;;;;;;;18.58;55.31;101684.28;5049159;28;20666;-46
2022/11/10 06:02:34;;;;;;;4.47;0.98;;;;;;;18.58;55.45;101681.66;5047402;28;20119;-46
2022/11/10 06:04:59;;;;;;;2.38;0.80;;;;;;;18.60;55.38;101686.88;5051283;28;20031;-48
2022/11/10 06:07:24;;;;;;;1.77;0.77;;;;;;;18.61;55.37;101691.19;5048984;28;20072;-47
2022/11/10 06:09:49;;;;;;;2.13;0.95;;;;;;;18.63;55.52;101697.25;5044644;28;20103;-47
2022/11/10 06:12:15;;;;;;;2.42;0.85;;;;;;;18.62;55.29;101699.06;5048483;28;20044;-47
2022/11/10 06:14:40;;;;;;;1.92;0.80;;;;;;;18.62;55.50;101696.41;5050297;28;20064;-47
2022/11/10 06:17:06;;;;;;;2.58;0.90;;;;;;;18.64;55.39;101702.47;5046913;28;20048;-44
2022/11/10 06:19:31;;;;;;;2.63;1.00;;;;;;;18.65;55.17;101709.47;5043096;28;20045;-41
2022/11/10 06:21:59;;;;;;;3.30;1.00;;;;;;;18.68;55.28;101709.34;5051920;28;20064;-42
2022/11/10 06:24:25;;;;;;;2.83;1.10;;;;;;;18.70;55.05;101715.38;5046007;28;20131;-43
2022/11/10 06:26:50;;;;;;;3.22;0.90;;;;;;;18.70;55.27;101723.28;5042695;28;20453;-42
2022/11/10 06:29:15;;;;;;;1.88;0.85;;;;;;;18.73;55.15;101727.56;5047282;28;21016;-43
2022/11/10 06:31:41;;;;;;;2.78;0.80;;;;;;;18.81;54.90;101733.38;5051481;28;20041;-42
2022/11/10 06:34:07;;;;;;;2.65;1.13;;;;;;;18.86;54.82;101734.06;5045244;28;20490;-45
2022/11/10 06:36:32;;;;;;;2.83;0.70;;;;;;;18.89;54.86;101743.63;5051634;28;20033;-42
2022/11/10 06:38:58;;;;;;;3.83;0.98;;;;;;;18.88;54.73;101747.16;5049126;28;20068;-41
2022/11/10 06:41:23;;;;;;;1.52;0.80;;;;;;;18.89;54.89;101747.13;5047311;28;20044;-43
2022/11/10 06:43:49;;;;;;;2.20;0.82;;;;;;;18.87;54.90;101759.47;5044984;28;20087;-41
2022/11/10 06:46:14;;;;;;;1.83;0.77;;;;;;;18.88;54.81;101762.94;5050108;28;20064;-42
2022/11/10 06:48:39;;;;;;;3.75;0.80;;;;;;;18.90;54.83;101761.97;5042782;28;20082;-42
2022/11/10 06:51:05;;;;;;;2.83;1.00;;;;;;;18.92;55.01;101765.41;5048721;28;20111;-41
2022/11/10 06:53:30;;;;;;;5.45;1.23;;;;;;;18.85;54.68;101766.56;5048216;28;20040;-43
2022/11/10 06:55:56;;;;;;;5.90;1.23;;;;;;;18.91;54.99;101773.38;5046395;28;20082;-44
2022/11/10 06:58:21;;;;;;;6.53;1.25;;;;;;;18.92;55.32;101781.22;5044533;28;20064;-43
2022/11/10 07:00:47;;;;;;;6.80;0.98;;;;;;;18.93;55.00;101782.91;5049068;28;20037;-44
2022/11/10 07:03:13;;;;;;;4.28;1.10;;;;;;;18.99;55.00;101790.56;5042302;28;20025;-42
2022/11/10 07:05:39;;;;;;;6.20;1.10;;;;;;;18.90;55.23;101790.06;5046829;28;20036;-42
2022/11/10 07:08:07;;;;;;;2.38;0.90;;;;;;;18.93;54.95;101792.59;5042647;28;20074;-42
2022/11/10 07:10:33;;;;;;;3.90;1.15;;;;;;;19.00;54.94;101802.81;5047237;28;20037;-41
2022/11/10 07:13:01;;;;;;;5.50;1.27;;;;;;;19.04;55.05;101804.44;5047253;28;20044;-42
2022/11/10 07:15:27;;;;;;;6.38;1.15;;;;;;;18.97;54.97;101808.22;5047588;28;20035;-42
2022/11/10 07:17:52;;;;;;;5.07;1.58;;;;;;;18.96;54.91;101806.50;5047336;28;20390;-42
2022/11/10 07:20:17;;;;;;;6.93;1.52;;;;;;;18.95;55.12;101804.78;5044949;28;20041;-42
2022/11/10 07:22:43;;;;;;;7.22;1.55;;;;;;;18.94;55.12;101810.97;5052798;28;20040;-40
2022/11/10 07:25:08;;;;;;;2.92;1.05;;;;;;;18.96;55.11;101819.66;5047124;28;20405;-41
2022/11/10 07:27:34;;;;;;;4.68;1.23;;;;;;;18.97;55.08;101823.16;5046606;28;20431;-42
2022/11/10 07:29:59;;;;;;;3.97;1.20;;;;;;;18.97;54.87;101820.53;5049509;28;20036;-41
2022/11/10 07:32:25;;;;;;;4.28;1.05;;;;;;;18.97;55.07;101831.91;5043693;28;20033;-41
2022/11/10 07:34:50;;;;;;;4.78;1.17;;;;;;;19.01;54.98;101833.53;5042803;28;20037;-43
2022/11/10 07:37:17;;;;;;;4.97;1.10;;;;;;;19.00;55.02;101833.56;5042019;28;20225;-41
2022/11/10 07:39:42;;;;;;;4.15;1.15;;;;;;;19.02;54.87;101839.63;5047023;28;20156;-40
2022/11/10 07:42:07;;;;;;;3.15;1.00;;;;;;;19.00;55.09;101844.97;5051268;28;20036;-40
2022/11/10 07:44:33;;;;;;;5.68;1.08;;;;;;;19.01;55.04;101856.38;5051186;28;20067;-41
2022/11/10 07:46:58;;;;;;;5.22;1.23;;;;;;;19.07;55.24;101854.34;5043809;28;20045;-43
2022/11/10 07:49:24;;;;;;;4.43;1.58;;;;;;;19.04;54.82;101846.56;5052666;28;20032;-47
2022/11/10 07:51:49;;;;;;;3.58;1.10;;;;;;;19.05;54.75;101864.06;5055182;28;20037;-47
2022/11/10 07:54:14;;;;;;;5.28;1.05;;;;;;;19.04;54.90;101866.78;5048513;28;20064;-48
2022/11/10 07:56:41;;;;;;;3.55;1.00;;;;;;;19.06;54.94;101859.66;5047156;28;20465;-48
2022/11/10 07:59:06;;;;;;;3.28;1.05;;;;;;;19.05;55.01;101871.97;5057059;28;20048;-50
2022/11/10 08:01:32;;;;;;;3.53;1.08;;;;;;;19.05;54.79;101871.09;5053419;28;20060;-50
2022/11/10 08:03:58;;;;;;;2.50;0.80;;;;;;;19.01;55.00;101875.66;5051014;28;20048;-48
2022/11/10 08:06:23;;;;;;;2.40;1.00;;;;;;;19.05;55.05;101877.25;5046441;28;20040;-49
2022/11/10 08:08:49;;;;;;;4.47;1.10;;;;;;;19.07;54.85;101874.56;5053201;28;20635;-47
2022/11/10 08:11:14;;;;;;;2.92;0.80;;;;;;;19.10;54.84;101884.97;5046613;28;20037;-49
2022/11/10 08:13:40;;;;;;;3.05;0.85;;;;;;;19.06;55.00;101892.13;5047446;28;20198;-45
2022/11/10 08:16:06;;;;;;;3.45;1.13;;;;;;;19.06;55.04;101897.41;5050552;28;20075;-48
2022/11/10 08:18:31;;;;;;;4.50;1.17;;;;;;;19.08;55.00;101900.81;5051842;28;20048;-48
2022/11/10 08:21:00;;;;;;;3.28;1.00;;;;;;;19.07;55.13;101899.13;5046604;28;20025;-48
2022/11/10 08:23:27;;;;;;;1.52;0.82;;;;;;;19.10;54.94;101903.41;5047563;28;20036;-48
2022/11/10 08:25:53;;;;;;;4.38;1.63;;;;;;;19.08;55.09;101900.81;5048021;28;20122;-48
2022/11/10 08:28:19;;;;;;;1.70;0.93;;;;;;;19.10;54.78;101903.41;5047036;28;20729;-48
2022/11/10 08:30:46;;;;;;;5.00;1.08;;;;;;;19.09;54.81;101907.81;5051564;28;20035;-47
2022/11/10 08:33:14;;;;;;;2.38;1.00;;;;;;;19.11;54.97;101913.00;5045154;28;20431;-50
2022/11/10 08:35:45;;;;;;;2.88;0.95;;;;;;;19.08;55.02;101914.00;5047618;28;20032;-50
2022/11/10 08:38:16;;;;;;;5.32;1.25;;;;;;;19.10;54.99;101920.09;5051693;28;20037;-50
2022/11/10 08:40:42;;;;;;;2.50;1.10;;;;;;;19.15;54.66;101927.78;5048069;28;20029;-52
2022/11/10 08:43:08;;;;;;;2.90;1.20;;;;;;;19.15;55.18;101922.53;5048452;28;20029;-50
2022/11/10 08:45:35;;;;;;;2.15;0.93;;;;;;;19.24;54.93;101930.94;5055376;28;20021;-49
2022/11/10 08:48:06;;;;;;;4.03;0.80;;;;;;;19.67;54.00;101927.47;5054761;28;20083;-47
2022/11/10 08:50:33;;;;;;;2.15;0.82;;;;;;;19.47;54.50;101926.56;5048060;28;20040;-45
2022/11/10 08:53:03;;;;;;;2.85;0.80;;;;;;;19.43;54.50;101940.81;5044542;28;20043;-47
2022/11/10 08:55:28;;;;;;;5.63;1.73;;;;;;;19.43;54.71;101936.38;5045181;28;20073;-46
2022/11/10 08:58:00;;;;;;;6.18;1.20;;;;;;;19.49;54.63;101944.03;5052389;28;20155;-46
2022/11/10 09:00:30;;;;;;;2.28;0.80;;;;;;;19.53;54.70;101952.69;5045355;28;20063;-46
2022/11/10 09:03:02;;;;;;;3.33;1.02;;;;;;;19.91;54.83;101957.25;5044312;28;20037;-52
2022/11/10 09:05:27;;;;;;;6.43;1.10;;;;;;;20.04;54.73;101962.91;5047197;28;20086;-52
2022/11/10 09:07:52;;;;;;;4.90;1.15;;;;;;;20.10;54.91;101965.31;5048041;28;20409;-51
2022/11/10 09:10:18;;;;;;;3.65;0.90;;;;;;;20.16;54.85;101965.06;5056653;28;20041;-51
2022/11/10 09:12:43;;;;;;;2.65;1.20;;;;;;;20.26;54.90;101964.59;5042142;28;20120;-47
2022/11/10 09:15:10;;;;;;;4.22;0.75;;;;;;;20.35;55.10;101961.56;5042036;28;20036;-51
2022/11/10 09:17:37;;;;;;;3.17;1.30;;;;;;;20.35;54.99;101971.31;5046674;28;20155;-50
2022/11/10 09:20:05;;;;;;;4.63;0.85;;;;;;;20.35;55.25;101973.94;5052644;28;20045;-52
2022/11/10 09:22:30;;;;;;;4.97;0.85;;;;;;;20.38;55.22;101979.09;5047825;28;20722;-51
2022/11/10 09:24:55;;;;;;;2.85;0.95;;;;;;;20.35;55.47;101966.84;5051267;28;20044;-50
2022/11/10 09:27:21;;;;;;;1.90;0.73;;;;;;;20.39;55.57;101985.19;5052953;28;20024;-53
2022/11/10 09:29:46;;;;;;;3.83;1.27;;;;;;;20.47;55.36;101991.03;5050731;28;20510;-43
2022/11/10 09:32:11;;;;;;;2.15;1.23;;;;;;;20.51;55.28;101987.31;5047273;28;20047;-44
2022/11/10 09:34:37;;;;;;;2.10;0.90;;;;;;;20.49;55.23;101990.03;5046767;28;20041;-44
2022/11/10 09:37:03;;;;;;;4.30;1.10;;;;;;;20.49;55.51;101978.63;5047958;28;20075;-42
2022/11/10 09:39:28;;;;;;;2.72;0.75;;;;;;;20.47;55.72;101988.38;5051692;28;20566;-43
2022/11/10 09:41:54;;;;;;;3.00;0.85;;;;;;;20.48;55.73;101996.22;5049438;28;20103;-44
2022/11/10 09:44:34;;;;;;;2.88;0.90;;;;;;;20.47;55.65;101996.31;5053313;28;20028;-43
2022/11/10 09:47:06;;;;;;;4.25;1.13;;;;;;;20.54;55.67;101989.81;5045855;28;20037;-44
2022/11/10 09:49:48;;;;;;;5.40;1.10;;;;;;;20.58;55.77;101994.06;5048922;28;20036;-44
2022/11/10 09:52:16;;;;;;;4.18;0.88;;;;;;;20.57;55.75;101995.84;5047872;28;20032;-43
2022/11/10 09:55:17;;;;;;;8.38;1.35;;;;;;;20.26;53.50;101995.44;5045176;28;20037;-39
2022/11/10 09:57:43;;;;;;;5.20;1.38;;;;;;;20.29;55.04;101998.78;5044761;28;20660;-40
2022/11/10 10:00:14;;;;;;;7.10;1.38;;;;;;;20.52;54.85;101989.03;5044842;28;20039;-43
2022/11/10 10:02:47;;;;;;;7.07;1.42;;;;;;;20.28;54.41;101990.94;5044892;28;20037;-43
2022/11/10 10:05:31;;;;;;;11.77;1.25;;;;;;;20.36;54.97;102004.66;5045042;28;20032;-44
2022/11/10 10:08:04;;;;;;;6.43;1.77;;;;;;;20.12;54.93;102003.91;5046809;28;20040;-44
2022/11/10 10:10:51;;;;;;;5.68;1.83;;;;;;;20.13;54.08;102005.63;5048287;28;20032;-43
2022/11/10 10:13:39;;;;;;;5.88;1.17;;;;;;;20.08;55.80;102012.88;5043987;28;20127;-43
2022/11/10 10:16:23;;;;;;;9.35;2.25;;;;;;;19.93;55.96;102017.88;5049064;28;20139;-53
2022/11/10 10:18:48;;;;;;;2.33;1.00;;;;;;;20.04;56.05;102013.88;5046973;28;20115;-52
2022/11/10 10:21:35;;;;;;;5.03;1.77;;;;;;;20.16;55.48;102009.91;5054325;28;20373;-51
2022/11/10 10:24:01;;;;;;;5.07;1.20;;;;;;;20.17;55.99;102014.28;5050906;28;21999;-50
2022/11/10 10:26:35;;;;;;;4.97;1.40;;;;;;;20.05;55.70;102010.34;5047605;28;20122;-50
2022/11/10 10:29:09;;;;;;;10.70;1.25;;;;;;;19.97;55.68;102008.91;5050599;28;20048;-50
2022/11/10 10:31:41;;;;;;;4.57;0.95;;;;;;;19.92;56.03;102019.66;5047523;28;20064;-53
2022/11/10 10:34:35;;;;;;;7.72;1.58;;;;;;;19.87;55.13;102010.22;5043604;28;20040;-53
2022/11/10 10:37:01;;;;;;;13.23;1.65;;;;;;;19.89;55.06;102009.22;5043320;28;20549;-55
2022/11/10 10:39:34;;;;;;;8.18;1.73;;;;;;;19.70;54.49;102018.78;5046040;28;20047;-45
2022/11/10 10:41:59;;;;;;;5.28;1.55;;;;;;;19.66;55.14;102020.69;5048420;28;20093;-46
2022/11/10 10:44:25;;;;;;;11.60;1.52;;;;;;;19.58;54.29;102012.19;5048433;28;20028;-45
2022/11/10 10:46:55;;;;;;;8.27;1.92;;;;;;;19.56;54.26;102031.63;5044400;28;20514;-45
2022/11/10 10:49:23;;;;;;;7.50;1.67;;;;;;;19.57;54.05;102028.94;5050457;28;20132;-46
2022/11/10 10:51:51;;;;;;;13.25;1.88;;;;;;;19.53;53.66;102027.34;5050299;28;20039;-45
2022/11/10 10:54:23;;;;;;;7.30;1.77;;;;;;;19.48;53.42;102031.06;5048933;28;20032;-45
2022/11/10 10:56:49;;;;;;;5.90;1.58;;;;;;;19.57;53.25;102028.94;5048301;28;20059;-46
2022/11/10 10:59:22;;;;;;;6.82;1.92;;;;;;;19.55;53.06;102027.31;5046069;28;20644;-46
2022/11/10 11:01:53;;;;;;;10.35;2.08;;;;;;;19.47;53.08;102029.34;5046256;28;20045;-47
2022/11/10 11:04:26;;;;;;;8.38;1.92;;;;;;;19.50;52.33;102026.59;5049294;28;20692;-46
2022/11/10 11:07:00;;;;;;;9.52;1.55;;;;;;;19.50;52.84;102023.97;5050184;28;20028;-46
2022/11/10 11:09:27;;;;;;;;;;;;;;;19.42;52.00;102021.63;5044956;28;20093;-47
2022/11/10 11:12:03;;;;;;;6.97;1.77;;;;;;;19.46;52.18;102006.56;5051319;28;19987;-45
2022/11/10 11:14:31;;;;;;;6.05;1.58;;;;;;;19.50;52.29;102009.00;5045242;28;20041;-47
2022/11/10 11:17:02;;;;;;;8.65;1.35;;;;;;;19.55;52.26;102011.50;5052116;28;20082;-46
2022/11/10 11:19:36;;;;;;;6.65;1.63;;;;;;;19.60;52.43;102014.78;5053525;28;20153;-45
2022/11/10 11:22:36;;;;;;;6.53;1.40;;;;;;;19.53;52.20;102015.94;5050247;28;20041;-47
2022/11/10 11:25:14;;;;;;;8.02;1.38;;;;;;;19.57;52.44;102013.13;5052854;28;20029;-46
2022/11/10 11:27:57;;;;;;;7.03;1.50;;;;;;;19.52;52.55;102020.34;5051196;28;20750;-45
2022/11/10 11:30:31;;;;;;;6.53;1.50;;;;;;;19.53;52.87;102018.56;5053532;28;20354;-46
2022/11/10 11:33:37;;;;;;;8.57;1.60;;;;;;;19.54;53.10;102030.84;5071981;28;20080;-46
2022/11/10 11:36:21;;;;;;;7.07;1.77;;;;;;;19.49;52.83;102024.91;5013641;28;20086;-48
2022/11/10 11:38:55;;;;;;;7.43;1.42;;;;;;;19.53;52.92;102032.63;5057012;28;20064;-46
2022/11/10 11:41:51;;;;;;;6.63;1.47;;;;;;;19.48;53.31;102050.38;5068265;28;20040;-46
2022/11/10 11:45:01;;;;;;;6.05;1.10;;;;;;;19.82;52.90;102051.75;5048560;28;20266;-55